createdAt,value
2019-05-21T00:00:20.726Z,98.87
2019-05-21T00:00:56.721Z,106.30
2019-05-21T00:01:32.720Z,97.37
2019-05-21T00:02:08.193Z,100.42
2019-05-21T00:02:44.901Z,100.53
2019-05-21T00:03:20.914Z,98.92
2019-05-21T00:03:56.351Z,97.30
2019-05-21T00:04:32.937Z,100.60
2019-05-21T00:05:09.832Z,98.50
2019-05-21T00:05:45.295Z,96.97
2019-05-21T00:06:21.920Z,101.40
2019-05-21T00:06:57.944Z,91.70
2019-05-21T00:07:33.431Z,94.40
2019-05-21T00:08:09.593Z,102.67
2019-05-21T00:08:47.014Z,90.87
2019-05-21T00:09:22.441Z,94.92
2019-05-21T00:09:59.480Z,92.57
2019-05-21T00:10:36.100Z,91.15
2019-05-21T00:11:12.146Z,92.45
2019-05-21T00:11:48.162Z,94.58
2019-05-21T00:12:25.205Z,93.05
2019-05-21T00:13:00.764Z,94.07
2019-05-21T00:13:37.398Z,93.52
2019-05-21T00:14:13.470Z,88.72
2019-05-21T00:14:48.944Z,92.00
2019-05-21T00:15:25.354Z,92.65
2019-05-21T00:16:01.958Z,93.82
2019-05-21T00:16:38.034Z,93.27
2019-05-21T00:17:14.536Z,92.70
2019-05-21T00:17:52.066Z,93.15
2019-05-21T00:18:28.617Z,89.35
2019-05-21T00:19:04.655Z,90.05
2019-05-21T00:19:41.080Z,95.70
2019-05-21T00:20:18.432Z,97.75
2019-05-21T00:20:55.429Z,95.45
2019-05-21T00:21:31.407Z,92.15
2019-05-21T00:22:07.539Z,94.20
2019-05-21T00:22:43.764Z,91.75
2019-05-21T00:23:20.145Z,90.83
2019-05-21T00:23:56.573Z,93.55
2019-05-21T00:24:32.575Z,95.10
2019-05-21T00:25:09.381Z,92.12
2019-05-21T00:25:46.193Z,99.47
2019-05-21T00:26:22.801Z,90.30
2019-05-21T00:26:59.204Z,95.95
2019-05-21T00:27:35.728Z,85.90
2019-05-21T00:28:43.403Z,90.75
2019-05-21T00:29:55.472Z,93.65
2019-05-21T00:31:07.067Z,88.47
2019-05-21T00:32:18.507Z,91.03
2019-05-21T00:33:30.716Z,87.08
2019-05-21T00:34:44.290Z,88.70
2019-05-21T00:35:56.190Z,99.30
2019-05-21T00:37:09.616Z,99.03
2019-05-21T00:38:21.724Z,97.57
2019-05-21T00:39:33.012Z,100.43
2019-05-21T00:40:45.039Z,95.27
2019-05-21T00:41:56.717Z,96.90
2019-05-21T00:42:36.301Z,95.87
2019-05-21T00:43:12.948Z,101.03
2019-05-21T00:43:54.380Z,102.40
2019-05-21T00:44:32.785Z,98.87
2019-05-21T00:45:10.943Z,103.02
2019-05-21T00:45:47.543Z,101.35
2019-05-21T00:46:24.136Z,97.75
2019-05-21T00:47:01.187Z,92.78
2019-05-21T00:47:36.646Z,98.53
2019-05-21T00:48:13.384Z,98.90
2019-05-21T00:48:49.421Z,100.17
2019-05-21T00:49:25.923Z,96.85
2019-05-21T00:50:02.031Z,90.47
2019-05-21T00:50:38.850Z,94.77
2019-05-21T00:51:15.713Z,93.85
2019-05-21T00:52:06.510Z,96.45
2019-05-21T00:52:30.426Z,96.30
2019-05-21T00:53:06.951Z,95.12
2019-05-21T00:53:43.757Z,96.63
2019-05-21T00:54:20.257Z,89.97
2019-05-21T00:54:56.961Z,96.15
2019-05-21T00:55:33.415Z,92.57
2019-05-21T00:56:09.909Z,96.45
2019-05-21T00:56:46.775Z,98.90
2019-05-21T00:57:23.633Z,91.02
2019-05-21T00:58:00.239Z,95.85
2019-05-21T00:58:35.748Z,95.25
2019-05-21T00:59:12.852Z,95.28
2019-05-21T00:59:49.500Z,94.20
2019-05-21T01:00:25.318Z,88.45
2019-05-21T01:01:02.281Z,88.70
2019-05-21T01:01:38.352Z,89.83
2019-05-21T01:02:14.461Z,89.47
2019-05-21T01:02:50.847Z,87.60
2019-05-21T01:03:26.942Z,88.15
2019-05-21T01:04:03.350Z,91.85
2019-05-21T01:04:39.416Z,86.47
2019-05-21T01:05:16.873Z,93.03
2019-05-21T01:05:52.950Z,87.62
2019-05-21T01:06:29.291Z,80.17
2019-05-21T01:07:05.739Z,86.20
2019-05-21T01:07:42.418Z,80.90
2019-05-21T01:08:19.137Z,85.53
2019-05-21T01:08:55.664Z,88.40
2019-05-21T01:09:31.185Z,87.53
2019-05-21T01:10:07.840Z,84.10
2019-05-21T01:10:44.517Z,90.12
2019-05-21T01:11:19.985Z,73.13
2019-05-21T01:11:55.994Z,73.75
2019-05-21T01:12:32.026Z,74.13
2019-05-21T01:13:07.852Z,80.55
2019-05-21T01:13:44.480Z,84.00
2019-05-21T01:14:21.787Z,81.32
2019-05-21T01:14:57.581Z,73.67
2019-05-21T01:15:33.771Z,78.67
2019-05-21T01:16:09.985Z,80.53
2019-05-21T01:16:45.684Z,78.30
2019-05-21T01:17:22.225Z,73.85
2019-05-21T01:17:58.544Z,79.17
2019-05-21T01:18:34.028Z,78.30
2019-05-21T01:19:11.419Z,77.97
2019-05-21T01:19:48.881Z,74.67
2019-05-21T01:20:24.314Z,72.80
2019-05-21T01:21:00.336Z,81.63
2019-05-21T01:21:36.733Z,70.30
2019-05-21T01:22:12.468Z,70.30
2019-05-21T01:22:49.529Z,70.12
2019-05-21T01:23:25.520Z,66.13
2019-05-21T01:24:01.417Z,71.77
2019-05-21T01:24:37.832Z,71.35
2019-05-21T01:25:14.769Z,68.45
2019-05-21T01:25:50.289Z,67.10
2019-05-21T01:26:26.650Z,69.83
2019-05-21T01:27:02.681Z,67.17
2019-05-21T01:27:38.576Z,64.70
2019-05-21T01:28:14.740Z,71.47
2019-05-21T01:28:50.787Z,66.30
2019-05-21T01:29:26.923Z,66.15
2019-05-21T01:30:02.939Z,62.37
2019-05-21T01:30:39.918Z,67.22
2019-05-21T01:31:16.363Z,72.93
2019-05-21T01:31:52.683Z,69.80
2019-05-21T01:32:29.317Z,65.35
2019-05-21T01:33:05.327Z,69.47
2019-05-21T01:33:42.441Z,68.72
2019-05-21T01:34:18.844Z,67.83
2019-05-21T01:34:54.276Z,73.60
2019-05-21T01:35:30.299Z,65.10
2019-05-21T01:36:06.373Z,66.60
2019-05-21T01:36:41.850Z,62.03
2019-05-21T01:37:17.944Z,64.97
2019-05-21T01:37:53.956Z,65.87
2019-05-21T01:38:29.429Z,68.30
2019-05-21T01:39:07.164Z,68.40
2019-05-21T01:39:43.304Z,66.33
2019-05-21T01:40:18.902Z,62.30
2019-05-21T01:40:55.169Z,62.67
2019-05-21T01:41:31.547Z,61.10
2019-05-21T01:42:07.011Z,61.67
2019-05-21T01:42:43.074Z,61.80
2019-05-21T01:43:20.001Z,63.78
2019-05-21T01:43:55.857Z,56.07
2019-05-21T01:44:32.596Z,56.55
2019-05-21T01:45:09.246Z,58.23
2019-05-21T01:45:44.738Z,60.30
2019-05-21T01:46:21.462Z,57.20
2019-05-21T01:46:57.810Z,54.73
2019-05-21T01:47:33.278Z,57.53
2019-05-21T01:48:09.389Z,53.23
2019-05-21T01:48:45.808Z,56.37
2019-05-21T01:49:21.657Z,51.73
2019-05-21T01:49:57.949Z,52.43
2019-05-21T01:50:34.305Z,50.27
2019-05-21T01:51:10.035Z,50.23
2019-05-21T01:51:46.441Z,52.97
2019-05-21T01:52:22.463Z,46.93
2019-05-21T01:52:57.909Z,51.02
2019-05-21T01:53:33.912Z,55.87
2019-05-21T01:54:10.292Z,50.55
2019-05-21T01:54:46.018Z,49.70
2019-05-21T01:55:22.449Z,50.63
2019-05-21T01:55:58.463Z,50.10
2019-05-21T01:56:33.911Z,51.93
2019-05-21T01:57:10.573Z,53.40
2019-05-21T01:57:47.252Z,52.33
2019-05-21T01:58:22.724Z,45.15
2019-05-21T01:58:58.830Z,48.07
2019-05-21T01:59:35.224Z,47.30
2019-05-21T02:00:11.201Z,46.07
2019-05-21T02:00:47.254Z,52.93
2019-05-21T02:01:23.365Z,48.80
2019-05-21T02:01:59.516Z,46.07
2019-05-21T02:02:35.529Z,47.77
2019-05-21T02:03:11.764Z,43.23
2019-05-21T02:03:47.568Z,47.87
2019-05-21T02:04:23.869Z,45.17
2019-05-21T02:04:59.993Z,42.47
2019-05-21T02:05:35.537Z,43.73
2019-05-21T02:06:11.630Z,41.10
2019-05-21T02:06:49.367Z,43.10
2019-05-21T02:07:24.934Z,40.23
2019-05-21T02:08:01.599Z,38.95
2019-05-21T02:08:37.646Z,38.23
2019-05-21T02:09:13.215Z,35.40
2019-05-21T02:09:59.010Z,35.03
2019-05-21T02:10:35.080Z,35.23
2019-05-21T02:11:10.834Z,41.63
2019-05-21T02:11:46.883Z,35.43
2019-05-21T02:12:22.902Z,35.50
2019-05-21T02:12:58.933Z,34.78
2019-05-21T02:13:35.377Z,32.20
2019-05-21T02:14:11.922Z,35.95
2019-05-21T02:14:47.885Z,37.40
2019-05-21T02:15:24.584Z,32.70
2019-05-21T02:16:01.183Z,32.58
2019-05-21T02:16:36.943Z,36.27
2019-05-21T02:17:13.168Z,32.40
2019-05-21T02:17:50.084Z,31.75
2019-05-21T02:18:25.828Z,30.88
2019-05-21T02:19:02.485Z,33.83
2019-05-21T02:19:39.419Z,31.42
2019-05-21T02:20:14.997Z,32.03
2019-05-21T02:20:51.474Z,31.03
2019-05-21T02:21:27.873Z,35.40
2019-05-21T02:22:03.314Z,32.77
2019-05-21T02:22:40.851Z,31.27
2019-05-21T02:23:16.951Z,30.03
2019-05-21T02:23:52.408Z,31.20
2019-05-21T02:24:29.360Z,27.70
2019-05-21T02:25:06.596Z,32.03
2019-05-21T02:25:42.474Z,30.50
2019-05-21T02:26:19.057Z,29.87
2019-05-21T02:26:55.544Z,29.93
2019-05-21T02:27:32.014Z,31.55
2019-05-21T02:28:08.151Z,29.10
2019-05-21T02:28:44.859Z,29.75
2019-05-21T02:29:20.335Z,26.63
2019-05-21T02:29:56.699Z,28.17
2019-05-21T02:30:32.759Z,26.87
2019-05-21T02:31:08.730Z,28.47
2019-05-21T02:31:44.912Z,29.03
2019-05-21T02:32:20.922Z,26.00
2019-05-21T02:32:56.513Z,25.70
2019-05-21T02:33:33.801Z,23.70
2019-05-21T02:34:10.312Z,24.33
2019-05-21T02:34:45.869Z,27.00
2019-05-21T02:35:21.910Z,27.07
2019-05-21T02:35:57.925Z,26.80
2019-05-21T02:36:34.339Z,26.10
2019-05-21T02:37:10.794Z,24.87
2019-05-21T02:37:46.907Z,24.85
2019-05-21T02:38:22.803Z,28.67
2019-05-21T02:38:59.155Z,26.73
2019-05-21T02:39:35.151Z,24.77
2019-05-21T02:40:12.916Z,24.30
2019-05-21T02:40:49.543Z,22.43
2019-05-21T02:41:25.914Z,23.27
2019-05-21T02:42:02.466Z,24.77
2019-05-21T02:42:39.216Z,23.87
2019-05-21T02:43:15.863Z,25.30
2019-05-21T02:43:51.307Z,25.63
2019-05-21T02:44:27.751Z,22.43
2019-05-21T02:45:03.760Z,23.50
2019-05-21T02:45:39.746Z,23.90
2019-05-21T02:46:15.921Z,23.30
2019-05-21T02:46:52.064Z,27.40
2019-05-21T02:47:28.466Z,23.57
2019-05-21T02:48:05.139Z,24.70
2019-05-21T02:48:41.302Z,25.80
2019-05-21T02:49:16.834Z,23.53
2019-05-21T02:49:53.136Z,26.53
2019-05-21T02:50:29.748Z,24.35
2019-05-21T02:51:05.814Z,24.70
2019-05-21T02:51:42.549Z,25.08
2019-05-21T02:52:18.673Z,25.80
2019-05-21T02:52:54.128Z,24.97
2019-05-21T02:53:34.350Z,25.60
2019-05-21T02:54:08.755Z,25.35
2019-05-21T02:54:45.725Z,24.05
2019-05-21T02:55:22.339Z,29.57
2019-05-21T02:55:58.345Z,26.20
2019-05-21T02:56:33.858Z,26.57
2019-05-21T02:57:10.541Z,25.50
2019-05-21T02:57:46.588Z,24.63
2019-05-21T02:58:22.638Z,26.73
2019-05-21T02:58:58.982Z,28.17
2019-05-21T02:59:35.329Z,24.87
2019-05-21T03:00:40.268Z,28.00
2019-05-21T03:01:23.426Z,26.83
2019-05-21T03:02:08.812Z,26.37
2019-05-21T03:02:44.904Z,27.30
2019-05-21T03:03:22.037Z,29.43
2019-05-21T03:03:58.704Z,27.82
2019-05-21T03:04:35.125Z,30.80
2019-05-21T03:05:11.138Z,27.60
2019-05-21T03:05:47.522Z,29.10
2019-05-21T03:06:23.577Z,29.00
2019-05-21T03:07:17.659Z,30.40
2019-05-21T03:07:54.043Z,29.53
2019-05-21T03:08:30.042Z,27.47
2019-05-21T03:09:07.229Z,30.97
2019-05-21T03:09:44.188Z,30.65
2019-05-21T03:10:20.926Z,30.87
2019-05-21T03:10:56.682Z,30.37
2019-05-21T03:11:32.732Z,26.23
2019-05-21T03:12:08.913Z,31.20
2019-05-21T03:12:44.890Z,31.13
2019-05-21T03:13:20.985Z,28.77
2019-05-21T03:13:57.189Z,29.83
2019-05-21T03:14:32.728Z,30.73
2019-05-21T03:15:09.440Z,30.90
2019-05-21T03:15:45.873Z,30.10
2019-05-21T03:16:21.339Z,32.50
2019-05-21T03:16:57.756Z,31.23
2019-05-21T03:17:33.986Z,32.23
2019-05-21T03:18:09.553Z,31.47
2019-05-21T03:18:46.031Z,31.33
2019-05-21T03:19:22.045Z,32.53
2019-05-21T03:19:57.924Z,30.27
2019-05-21T03:20:34.353Z,33.83
2019-05-21T03:21:11.014Z,34.23
2019-05-21T03:21:46.500Z,31.20
2019-05-21T03:22:22.816Z,31.37
2019-05-21T03:22:58.929Z,28.73
2019-05-21T03:23:35.394Z,34.43
2019-05-21T03:24:11.774Z,29.67
2019-05-21T03:24:47.856Z,34.83
2019-05-21T03:25:23.375Z,32.93
2019-05-21T03:25:59.391Z,32.90
2019-05-21T03:26:35.781Z,30.13
2019-05-21T03:27:11.260Z,34.57
2019-05-21T03:27:47.291Z,33.63
2019-05-21T03:28:23.306Z,31.20
2019-05-21T03:28:59.381Z,31.00
2019-05-21T03:29:35.399Z,29.13
2019-05-21T03:30:12.081Z,32.10
2019-05-21T03:30:47.677Z,32.90
2019-05-21T03:31:24.029Z,29.67
2019-05-21T03:32:00.133Z,29.33
2019-05-21T03:32:35.579Z,32.77
2019-05-21T03:33:12.047Z,30.37
2019-05-21T03:33:48.165Z,29.70
2019-05-21T03:34:23.914Z,31.70
2019-05-21T03:35:00.241Z,32.40
2019-05-21T03:35:36.262Z,32.30
2019-05-21T03:36:11.994Z,31.45
2019-05-21T03:36:48.047Z,31.13
2019-05-21T03:37:24.071Z,32.83
2019-05-21T03:38:00.501Z,28.57
2019-05-21T03:38:36.848Z,28.83
2019-05-21T03:39:13.730Z,35.47
2019-05-21T03:39:49.302Z,29.47
2019-05-21T03:40:25.340Z,35.77
2019-05-21T03:41:01.630Z,32.43
2019-05-21T03:41:37.471Z,36.27
2019-05-21T03:42:13.583Z,34.17
2019-05-21T03:42:49.654Z,30.97
2019-05-21T03:43:25.120Z,33.27
2019-05-21T03:44:01.166Z,33.70
2019-05-21T03:44:37.773Z,30.87
2019-05-21T03:45:13.613Z,31.70
2019-05-21T03:45:50.234Z,32.33
2019-05-21T03:46:26.594Z,34.00
2019-05-21T03:47:02.081Z,31.87
2019-05-21T03:47:38.201Z,29.70
2019-05-21T03:48:14.701Z,29.33
2019-05-21T03:48:50.154Z,29.77
2019-05-21T03:49:26.935Z,27.80
2019-05-21T03:50:03.539Z,29.57
2019-05-21T03:50:39.113Z,29.73
2019-05-21T03:51:15.253Z,28.90
2019-05-21T03:51:52.002Z,32.43
2019-05-21T03:52:27.466Z,28.90
2019-05-21T03:53:03.858Z,32.33
2019-05-21T03:53:39.939Z,28.80
2019-05-21T03:54:15.470Z,29.37
2019-05-21T03:54:51.477Z,29.80
2019-05-21T03:55:27.900Z,26.93
2019-05-21T03:56:03.340Z,34.00
2019-05-21T03:56:39.994Z,33.13
2019-05-21T03:57:16.018Z,25.87
2019-05-21T03:57:51.509Z,27.70
2019-05-21T03:58:27.556Z,30.23
2019-05-21T03:59:03.608Z,30.23
2019-05-21T03:59:39.173Z,31.17
2019-05-21T04:00:16.512Z,30.60
2019-05-21T04:00:52.967Z,31.30
2019-05-21T04:01:28.408Z,27.87
2019-05-21T04:02:04.852Z,26.87
2019-05-21T04:02:41.998Z,28.43
2019-05-21T04:03:17.943Z,31.87
2019-05-21T04:03:54.318Z,27.33
2019-05-21T04:04:30.316Z,25.93
2019-05-21T04:05:06.439Z,28.40
2019-05-21T04:05:42.565Z,28.47
2019-05-21T04:06:19.010Z,26.10
2019-05-21T04:06:54.522Z,28.57
2019-05-21T04:07:30.574Z,25.43
2019-05-21T04:08:06.648Z,26.73
2019-05-21T04:08:43.086Z,29.37
2019-05-21T04:09:19.482Z,26.63
2019-05-21T04:09:55.487Z,24.80
2019-05-21T04:10:30.941Z,25.00
2019-05-21T04:11:07.772Z,25.47
2019-05-21T04:11:44.201Z,24.97
2019-05-21T04:12:20.123Z,25.93
2019-05-21T04:13:09.206Z,25.77
2019-05-21T04:13:45.884Z,26.67
2019-05-21T04:14:34.092Z,26.33
2019-05-21T04:15:11.908Z,26.80
2019-05-21T04:16:03.078Z,25.33
2019-05-21T04:16:46.416Z,24.43
2019-05-21T04:17:41.005Z,27.40
2019-05-21T04:18:21.554Z,25.50
2019-05-21T04:19:28.751Z,25.37
2019-05-21T04:20:04.453Z,25.37
2019-05-21T04:20:40.914Z,26.70
2019-05-21T04:21:17.099Z,26.03
2019-05-21T04:21:52.812Z,23.57
2019-05-21T04:22:28.848Z,22.80
2019-05-21T04:23:04.876Z,25.10
2019-05-21T04:23:40.781Z,25.20
2019-05-21T04:24:16.995Z,24.90
2019-05-21T04:24:52.997Z,22.00
2019-05-21T04:25:28.785Z,25.10
2019-05-21T04:26:04.842Z,26.33
2019-05-21T04:26:41.195Z,27.70
2019-05-21T04:27:16.768Z,25.30
2019-05-21T04:27:53.035Z,22.70
2019-05-21T04:28:29.097Z,24.33
2019-05-21T04:29:04.906Z,22.33
2019-05-21T04:29:41.134Z,23.93
2019-05-21T04:30:17.179Z,21.37
2019-05-21T04:30:52.743Z,20.53
2019-05-21T04:31:29.392Z,17.87
2019-05-21T04:32:05.906Z,21.80
2019-05-21T04:32:41.515Z,18.67
2019-05-21T04:33:17.678Z,21.30
2019-05-21T04:33:53.711Z,21.60
2019-05-21T04:34:29.213Z,20.47
2019-05-21T04:35:05.469Z,21.47
2019-05-21T04:35:42.128Z,20.07
2019-05-21T04:36:17.690Z,18.77
2019-05-21T04:37:09.294Z,18.07
2019-05-21T04:37:31.785Z,18.83
2019-05-21T04:38:08.108Z,18.30
2019-05-21T04:38:44.778Z,22.57
2019-05-21T04:39:20.826Z,20.50
2019-05-21T04:39:56.285Z,21.07
2019-05-21T04:40:32.298Z,19.80
2019-05-21T04:41:08.426Z,22.17
2019-05-21T04:41:44.948Z,19.70
2019-05-21T04:42:21.720Z,17.53
2019-05-21T04:43:01.662Z,18.00
2019-05-21T04:43:35.214Z,20.43
2019-05-21T04:44:11.932Z,17.27
2019-05-21T04:44:48.258Z,18.17
2019-05-21T04:45:23.738Z,17.13
2019-05-21T04:45:59.756Z,17.50
2019-05-21T04:46:35.795Z,17.50
2019-05-21T04:47:11.327Z,16.60
2019-05-21T04:47:47.428Z,16.30
2019-05-21T04:48:23.521Z,14.53
2019-05-21T04:48:59.363Z,16.67
2019-05-21T04:49:35.721Z,17.70
2019-05-21T04:50:12.054Z,20.37
2019-05-21T04:50:48.221Z,17.40
2019-05-21T04:51:24.668Z,16.37
2019-05-21T04:52:00.689Z,19.80
2019-05-21T04:52:37.125Z,21.20
2019-05-21T04:53:14.011Z,19.83
2019-05-21T04:53:50.740Z,16.93
2019-05-21T04:54:26.749Z,17.23
2019-05-21T04:55:02.791Z,17.73
2019-05-21T04:55:38.878Z,17.80
2019-05-21T04:56:14.536Z,19.33
2019-05-21T04:56:50.975Z,17.43
2019-05-21T04:57:27.010Z,20.00
2019-05-21T04:58:02.849Z,19.63
2019-05-21T04:58:39.126Z,20.40
2019-05-21T04:59:15.605Z,18.60
2019-05-21T04:59:51.439Z,20.10
2019-05-21T05:00:27.561Z,17.97
2019-05-21T05:01:03.794Z,16.50
2019-05-21T05:01:39.448Z,18.40
2019-05-21T05:02:15.949Z,18.33
2019-05-21T05:02:52.061Z,18.93
2019-05-21T05:03:28.083Z,19.07
2019-05-21T05:04:04.520Z,20.37
2019-05-21T05:04:40.649Z,15.20
2019-05-21T05:05:16.346Z,14.37
2019-05-21T05:05:52.456Z,12.97
2019-05-21T05:06:28.601Z,14.90
2019-05-21T05:07:04.362Z,11.60
2019-05-21T05:07:40.911Z,11.70
2019-05-21T05:08:16.974Z,12.40
2019-05-21T05:08:52.750Z,11.97
2019-05-21T05:09:29.513Z,12.77
2019-05-21T05:10:06.601Z,9.93
2019-05-21T05:10:42.494Z,12.00
2019-05-21T05:11:19.209Z,9.53
2019-05-21T05:11:55.238Z,15.43
2019-05-21T05:12:30.804Z,10.60
2019-05-21T05:13:07.593Z,8.87
2019-05-21T05:13:44.170Z,9.60
2019-05-21T05:14:19.634Z,10.83
2019-05-21T05:14:56.041Z,9.37
2019-05-21T05:15:32.036Z,10.07
2019-05-21T05:16:08.405Z,9.83
2019-05-21T05:16:44.626Z,9.07
2019-05-21T05:17:20.607Z,8.07
2019-05-21T05:17:56.494Z,9.27
2019-05-21T05:18:32.581Z,7.20
2019-05-21T05:19:08.633Z,6.87
2019-05-21T05:19:44.218Z,6.30
2019-05-21T05:20:21.052Z,6.53
2019-05-21T05:20:57.725Z,6.93
2019-05-21T05:21:33.195Z,7.00
2019-05-21T05:22:09.594Z,7.57
2019-05-21T05:22:46.083Z,7.53
2019-05-21T05:23:21.545Z,6.90
2019-05-21T05:23:58.125Z,8.53
2019-05-21T05:24:37.097Z,8.43
2019-05-21T05:25:12.184Z,8.37
2019-05-21T05:25:48.748Z,8.10
2019-05-21T05:26:25.027Z,6.60
2019-05-21T05:27:00.874Z,8.00
2019-05-21T05:27:36.876Z,7.97
2019-05-21T05:28:13.028Z,6.63
2019-05-21T05:28:48.596Z,9.63
2019-05-21T05:29:24.637Z,7.10
2019-05-21T05:30:00.983Z,9.37
2019-05-21T05:30:36.567Z,8.27
2019-05-21T05:31:15.256Z,6.60
2019-05-21T05:31:50.751Z,6.80
2019-05-21T05:32:26.650Z,6.60
2019-05-21T05:33:02.975Z,5.90
2019-05-21T05:33:39.210Z,6.33
2019-05-21T05:34:14.782Z,7.50
2019-05-21T05:34:50.966Z,6.93
2019-05-21T05:35:26.960Z,6.97
2019-05-21T05:36:02.521Z,6.33
2019-05-21T05:36:38.799Z,8.27
2019-05-21T05:37:14.905Z,7.10
2019-05-21T05:37:50.845Z,7.17
2019-05-21T05:38:27.270Z,7.00
2019-05-21T05:39:03.553Z,6.07
2019-05-21T05:39:39.085Z,6.27
2019-05-21T05:40:16.632Z,6.17
2019-05-21T05:40:52.650Z,6.83
2019-05-21T05:41:28.102Z,6.07
2019-05-21T05:42:04.110Z,6.37
2019-05-21T05:42:40.259Z,6.23
2019-05-21T05:43:16.208Z,6.37
2019-05-21T05:43:52.574Z,5.73
2019-05-21T05:44:29.000Z,6.40
2019-05-21T05:45:04.913Z,6.93
2019-05-21T05:45:41.523Z,5.07
2019-05-21T05:46:17.621Z,5.37
2019-05-21T05:46:53.096Z,6.33
2019-05-21T05:47:29.083Z,5.63
2019-05-21T05:48:05.517Z,6.30
2019-05-21T05:48:48.329Z,5.80
2019-05-21T05:49:30.183Z,6.13
2019-05-21T05:50:08.346Z,6.63
2019-05-21T05:50:45.587Z,6.13
2019-05-21T05:51:21.659Z,6.00
2019-05-21T05:51:57.611Z,6.27
2019-05-21T05:52:33.070Z,6.87
2019-05-21T05:53:09.123Z,5.90
2019-05-21T05:53:58.773Z,6.40
2019-05-21T05:54:34.202Z,5.77
2019-05-21T05:55:10.882Z,6.00
2019-05-21T05:55:47.057Z,10.03
2019-05-21T05:56:22.564Z,6.80
2019-05-21T05:56:59.051Z,5.77
2019-05-21T05:57:35.056Z,6.83
2019-05-21T05:58:10.607Z,5.80
2019-05-21T05:58:46.651Z,6.10
2019-05-21T05:59:22.666Z,5.93
2019-05-21T05:59:58.110Z,6.57
2019-05-21T06:00:34.136Z,7.03
2019-05-21T06:01:10.147Z,6.10
2019-05-21T06:01:45.724Z,5.07
2019-05-21T06:02:21.779Z,6.63
2019-05-21T06:02:58.521Z,6.07
2019-05-21T06:03:33.951Z,6.00
2019-05-21T06:04:10.005Z,8.03
2019-05-21T06:04:46.145Z,5.57
2019-05-21T06:05:22.347Z,5.40
2019-05-21T06:05:58.356Z,4.97
2019-05-21T06:06:34.481Z,7.50
2019-05-21T06:07:10.060Z,5.17
2019-05-21T06:07:58.842Z,6.20
2019-05-21T06:08:23.842Z,4.90
2019-05-21T06:08:59.288Z,5.77
2019-05-21T06:09:36.538Z,4.70
2019-05-21T06:10:12.880Z,6.20
2019-05-21T06:10:48.434Z,5.10
2019-05-21T06:11:24.545Z,6.53
2019-05-21T06:12:01.211Z,6.70
2019-05-21T06:12:36.989Z,5.13
2019-05-21T06:13:13.047Z,5.50
2019-05-21T06:13:49.405Z,5.17
2019-05-21T06:14:25.181Z,6.90
2019-05-21T06:15:01.285Z,5.17
2019-05-21T06:15:37.726Z,5.87
2019-05-21T06:16:13.475Z,5.80
2019-05-21T06:16:49.490Z,4.80
2019-05-21T06:17:25.483Z,5.07
2019-05-21T06:18:01.292Z,5.77
2019-05-21T06:18:37.676Z,8.77
2019-05-21T06:19:13.781Z,5.70
2019-05-21T06:19:50.577Z,6.30
2019-05-21T06:20:27.275Z,5.63
2019-05-21T06:21:03.392Z,8.20
2019-05-21T06:21:40.435Z,4.87
2019-05-21T06:22:16.504Z,4.57
2019-05-21T06:22:52.941Z,5.13
2019-05-21T06:23:28.968Z,4.67
2019-05-21T06:24:05.643Z,4.40
2019-05-21T06:24:41.725Z,8.27
2019-05-21T06:25:18.984Z,5.03
2019-05-21T06:25:55.118Z,4.77
2019-05-21T06:26:31.139Z,5.00
2019-05-21T06:27:06.593Z,5.83
2019-05-21T06:27:43.391Z,4.50
2019-05-21T06:28:19.436Z,6.97
2019-05-21T06:28:54.915Z,5.50
2019-05-21T06:29:30.912Z,4.67
2019-05-21T06:30:08.028Z,5.47
2019-05-21T06:30:43.922Z,7.10
2019-05-21T06:31:20.367Z,4.70
2019-05-21T06:31:56.730Z,6.40
2019-05-21T06:32:32.687Z,5.07
2019-05-21T06:33:08.746Z,7.30
2019-05-21T06:33:44.823Z,4.53
2019-05-21T06:34:20.266Z,6.43
2019-05-21T06:34:56.284Z,4.73
2019-05-21T06:35:32.394Z,7.20
2019-05-21T06:36:08.804Z,5.13
2019-05-21T06:36:45.323Z,7.17
2019-05-21T06:37:21.338Z,4.90
2019-05-21T06:37:57.375Z,5.12
2019-05-21T06:38:33.795Z,5.33
2019-05-21T06:39:09.989Z,5.83
2019-05-21T06:39:45.954Z,5.63
2019-05-21T06:40:21.953Z,5.00
2019-05-21T06:40:58.267Z,4.80
2019-05-21T06:41:33.737Z,6.13
2019-05-21T06:42:10.612Z,4.23
2019-05-21T06:42:47.232Z,4.83
2019-05-21T06:43:23.019Z,4.10
2019-05-21T06:43:59.329Z,5.33
2019-05-21T06:44:35.347Z,4.40
2019-05-21T06:45:11.429Z,4.93
2019-05-21T06:45:47.519Z,4.63
2019-05-21T06:46:23.501Z,5.67
2019-05-21T06:46:59.249Z,4.47
2019-05-21T06:47:35.605Z,5.10
2019-05-21T06:48:11.859Z,6.47
2019-05-21T06:48:47.716Z,7.07
2019-05-21T06:49:24.063Z,7.40
2019-05-21T06:50:00.884Z,7.20
2019-05-21T06:50:37.578Z,6.83
2019-05-21T06:51:13.939Z,4.70
2019-05-21T06:51:50.315Z,6.40
2019-05-21T06:52:26.554Z,5.73
2019-05-21T06:53:02.575Z,7.93
2019-05-21T06:53:38.642Z,5.03
2019-05-21T06:54:14.184Z,6.07
2019-05-21T06:54:50.678Z,5.70
2019-05-21T06:55:26.700Z,5.13
2019-05-21T06:56:02.146Z,9.30
2019-05-21T06:56:38.588Z,4.70
2019-05-21T06:57:14.731Z,5.17
2019-05-21T06:57:50.542Z,8.63
2019-05-21T06:58:26.538Z,6.83
2019-05-21T06:59:02.566Z,5.97
2019-05-21T06:59:38.144Z,8.23
2019-05-21T07:00:15.458Z,8.13
2019-05-21T07:00:51.505Z,7.33
2019-05-21T07:01:29.347Z,8.03
2019-05-21T07:02:04.898Z,6.53
2019-05-21T07:02:42.825Z,7.93
2019-05-21T07:03:18.359Z,9.03
2019-05-21T07:03:54.402Z,8.87
2019-05-21T07:04:30.389Z,7.27
2019-05-21T07:05:06.624Z,5.87
2019-05-21T07:05:57.619Z,10.40
2019-05-21T07:06:21.692Z,5.73
2019-05-21T07:06:57.135Z,6.57
2019-05-21T07:07:33.132Z,9.43
2019-05-21T07:08:09.229Z,9.07
2019-05-21T07:08:44.701Z,6.73
2019-05-21T07:09:20.795Z,6.97
2019-05-21T07:09:56.835Z,7.07
2019-05-21T07:10:32.300Z,5.73
2019-05-21T07:11:08.363Z,7.07
2019-05-21T07:11:44.554Z,6.73
2019-05-21T07:12:20.428Z,6.37
2019-05-21T07:12:56.575Z,5.73
2019-05-21T07:13:32.616Z,5.50
2019-05-21T07:14:08.796Z,5.73
2019-05-21T07:14:44.906Z,6.20
2019-05-21T07:15:20.931Z,8.07
2019-05-21T07:15:56.644Z,6.47
2019-05-21T07:16:32.760Z,7.73
2019-05-21T07:17:09.190Z,7.47
2019-05-21T07:17:45.422Z,5.73
2019-05-21T07:18:21.457Z,5.40
2019-05-21T07:18:57.459Z,7.40
2019-05-21T07:19:32.980Z,6.10
2019-05-21T07:20:10.234Z,6.50
2019-05-21T07:20:46.363Z,7.17
2019-05-21T07:21:21.815Z,5.77
2019-05-21T07:22:11.417Z,5.53
2019-05-21T07:22:35.681Z,6.87
2019-05-21T07:23:11.615Z,7.30
2019-05-21T07:23:47.686Z,6.47
2019-05-21T07:24:27.911Z,5.83
2019-05-21T07:25:01.255Z,6.50
2019-05-21T07:25:37.428Z,6.70
2019-05-21T07:26:13.707Z,6.73
2019-05-21T07:26:49.189Z,6.13
2019-05-21T07:27:25.637Z,6.60
2019-05-21T07:28:02.237Z,6.33
2019-05-21T07:28:37.777Z,6.50
2019-05-21T07:29:14.470Z,7.80
2019-05-21T07:29:50.738Z,5.87
2019-05-21T07:30:26.202Z,7.83
2019-05-21T07:31:02.820Z,7.33
2019-05-21T07:31:38.864Z,5.63
2019-05-21T07:32:15.200Z,9.73
2019-05-21T07:32:52.128Z,6.77
2019-05-21T07:33:28.682Z,6.17
2019-05-21T07:34:05.011Z,5.87
2019-05-21T07:34:41.918Z,5.20
2019-05-21T07:35:18.156Z,5.77
2019-05-21T07:35:53.616Z,6.87
2019-05-21T07:36:29.644Z,7.87
2019-05-21T07:37:05.717Z,5.60
2019-05-21T07:37:41.792Z,9.00
2019-05-21T07:38:17.803Z,6.33
2019-05-21T07:38:54.371Z,7.33
2019-05-21T07:39:29.959Z,7.50
2019-05-21T07:40:06.897Z,6.03
2019-05-21T07:40:43.036Z,8.23
2019-05-21T07:41:20.411Z,7.90
2019-05-21T07:41:56.178Z,5.30
2019-05-21T07:42:32.291Z,5.00
2019-05-21T07:43:07.820Z,5.23
2019-05-21T07:43:44.005Z,6.30
2019-05-21T07:44:19.992Z,5.63
2019-05-21T07:44:55.490Z,6.13
2019-05-21T07:45:31.544Z,6.70
2019-05-21T07:46:08.031Z,7.23
2019-05-21T07:46:44.171Z,5.23
2019-05-21T07:47:20.593Z,6.00
2019-05-21T07:47:56.666Z,11.40
2019-05-21T07:48:32.104Z,7.17
2019-05-21T07:49:08.168Z,6.90
2019-05-21T07:49:44.349Z,5.93
2019-05-21T07:50:19.923Z,6.70
2019-05-21T07:50:55.913Z,7.83
2019-05-21T07:51:32.469Z,5.30
2019-05-21T07:52:07.938Z,7.03
2019-05-21T07:52:44.814Z,7.20
2019-05-21T07:53:20.878Z,8.23
2019-05-21T07:53:56.311Z,8.10
2019-05-21T07:54:32.649Z,6.73
2019-05-21T07:55:08.931Z,7.30
2019-05-21T07:55:44.855Z,5.70
2019-05-21T07:56:21.192Z,5.70
2019-05-21T07:56:57.636Z,5.27
2019-05-21T07:57:33.110Z,8.90
2019-05-21T07:58:09.255Z,5.57
2019-05-21T07:58:45.791Z,5.03
2019-05-21T07:59:21.247Z,6.13
2019-05-21T07:59:57.225Z,7.13
2019-05-21T08:00:33.214Z,6.30
2019-05-21T08:01:08.802Z,6.53
2019-05-21T08:01:45.062Z,6.00
2019-05-21T08:02:21.783Z,7.67